Airfield :
LOGIN :

Register | Disclaimer

   EN    FR    IT 

 










Legend :    VFR   Marginal VFR   IFR   Intensive IFR   Very Intensive IFR
Visi :
Ceiling :
>= 8 km
>= 3000ft
5 to 8 km
1000 to 3000 ft
1500m to 5 km
500 to 1000 ft
800 to 1500m
200 to 500 ft
< 800m
< 200 ft
Symbols :   Thunderstorms  Fog  Heavy snow  Heavy precipitations  Wind > 20 kt
SIGMETs :     Misc.  Thunderstorms  Icing  Turbulence  Mountain Waves  Volcanic Ashes







- Airport Elevation : 17 ft
- IATA code : GRQ


EHGG - Groningen Eelde

CURRENT METAR :
  • 180755Z AUTO 06005KT 9999 NCD M01/M04 Q1034 NOSIG

EXPIRED METARs :
  • 180725Z AUTO 06008KT 9999 NCD M02/M04 Q1034 NOSIG
  • 180655Z AUTO 06007KT 9999 NSC M02/M05 Q1033 NOSIG
  • 180625Z AUTO 06006KT 9999 NCD M02/M04 Q1033 NOSIG
  • 180555Z AUTO 07005KT 9999 NCD M02/M04 Q1033 NOSIG
  • 180525Z AUTO 07007KT 9999 NCD M03/M04 Q1033 NOSIG

TAF TAF EHGG
Valid from the 18 at 06:00 until the 19 at 12:00 UTC


180513Z 1806/1912 08007KT CAVOK
TEMPO 1817/1909 6000 BKN012
PROB30
TEMPO 1817/1909 BKN008
BECMG 1903/1906 05012KT
No reported NOTAMs for that airfield.



MET'MAP, your aeronautical weather chart ! - Copyright ORBIFLY December 2007 - Disclaimer

ORBIFLY MET'MAP TEAM :

Programming & Development : Alexandra Zaïnal
Concept & Development : Baudouin d'Aumeries
Co-Development & Prog : Marc-Olivier Méhu
Technical & hardware support : Manuel Goepfert

Contact : metmap@orbifly.com




SOURCES & CREDITS :

   NOAA